首页
METAR-TAF:

METAR-TAF

机场 :

比靈斯, 蒙大拿州, 美国

纬度: 45-48-25N, 经度: 108-32-32W, 海拔: 1112米

当前天气观测

该预报发布于23分钟前的06:53 UTC
风速5节,风向西南
温度 8°C
湿度 39%
气压 1009 hPa
能見度: 16.1公里
多云层高于16000英尺

METAR: KBIL 310653Z 23005KT 10SM BKN160 08/M05 A2980 RMK AO2 SLP090 T00781050 401671006

时间: 01:16 (07:16 UTC)

预报

该预报发布于1小时和39分钟前的05:37 UTC
预报有效从31日的 06点(UTC)到 01日的 06点(UTC)
风速8节,风向西南
能見度: 10公里
散云层高于10000英尺
多云层高于20000英尺
从 31日的 1100点(UTC)
风速10节,风向西北
能見度: 10公里
散云层高于4000英尺
阴天层高于8000英尺
附近有阵雨
短暂存在
从 31日的 13点(UTC)到 31日的 17点(UTC)
能見度: 4.8公里
阴天层高于3000英尺
小阵雨, 雪
从 31日的 2100点(UTC)
风速8节,风向北转东北
能見度: 9.7公里
多云层高于3000英尺
阴天层高于6000英尺
小雨
从 01日的 0000点(UTC)
风速10节,风向东北
能見度: 6.4公里
多云层高于2500英尺
阴天层高于4000英尺
小雨, 轻雾
从 01日的 0300点(UTC)
风速7节,风向北转东北
能見度: 4.8公里
少量云层高于400英尺
阴天层高于2000英尺
小雨, 雪, 轻雾
从 01日的 0500点(UTC)
风速7节,风向北转东北
能見度: 3.2公里
多云层高于700英尺
阴天层高于2000英尺
小雪, 轻雾

TAF: KBIL 310537Z 3106/0106 22008KT P6SM SCT100 BKN200 WS020/27035KT FM311100 32010KT P6SM VCSH SCT040 OVC080 TEMPO 3113/3117 3SM -SHRASN OVC030 FM312100 03008KT 6SM -RA BKN030 OVC060 FM010000 04010KT 4SM -RA BR BKN025 OVC040 FM010300 03007KT 3SM -RASN BR FEW004 OVC020 FM010500 02007KT 2SM -SN BR BKN007 OVC020

超过4000个机场的气象观测和天气预报(METAR&TAF报告)。

可查询的气象台以黄色和红色小点在地图上表示。

将鼠标移到小点上方,可查看气象台名称。

然后点击查看天气观测和预报。

如需切换地图:点击带黑十字的绿色按钮放大地图;点击带横线的绿色按钮缩小地图;或者点击绿色箭头查看邻近地区的地图。


METAR-TAF: